Time;durP1;ratioP1;P1;durP2;ratioP2;P2;SDS_P1;SDS_P2;PMS_P1;PMS_P2;Temp;Humidity;BMP_temperature;BMP_pressure;BME280_temperature;BME280_humidity;BME280_pressure;Samples;Min_cycle;Max_cycle;Signal;HPM_P1;HPM_P2
2023/06/03 00:00:44;;;;;;;10.77;6.70;;;;;;;14.51;73.36;101846.38;3612586;39;20292;-69
2023/06/03 00:03:13;;;;;;;16.08;7.28;;;;;;;14.49;73.64;101840.13;3613149;39;20050;-70
2023/06/03 00:05:39;;;;;;;14.38;6.60;;;;;;;14.45;73.32;101830.47;3613908;39;20035;-69
2023/06/03 00:08:05;;;;;;;11.20;6.90;;;;;;;14.43;73.15;101837.84;3621503;39;20059;-70
2023/06/03 00:10:31;;;;;;;11.15;7.30;;;;;;;14.43;73.09;101837.84;3613807;39;20051;-69
2023/06/03 00:12:56;;;;;;;11.70;7.10;;;;;;;14.39;73.21;101842.53;3617453;39;20054;-68
2023/06/03 00:15:22;;;;;;;13.55;7.18;;;;;;;14.37;73.08;101832.81;3618792;39;20082;-68
2023/06/03 00:17:48;;;;;;;14.23;7.10;;;;;;;14.34;73.38;101833.00;3615882;39;20062;-69
2023/06/03 00:20:14;;;;;;;12.27;6.60;;;;;;;14.31;73.41;101834.03;3615645;39;20058;-69
2023/06/03 00:22:40;;;;;;;12.93;7.20;;;;;;;14.28;73.03;101839.66;3619170;39;20055;-68
2023/06/03 00:25:08;;;;;;;16.65;7.47;;;;;;;14.25;73.35;101847.06;3616635;39;20049;-68
2023/06/03 00:27:40;;;;;;;15.52;7.30;;;;;;;13.51;72.96;101724.50;3616340;39;20536;-69
2023/06/03 00:30:07;;;;;;;12.98;7.45;;;;;;;14.20;73.24;101836.53;3614214;39;20062;-68
2023/06/03 00:32:34;;;;;;;13.57;7.90;;;;;;;14.19;72.96;101842.91;3622530;39;20054;-68
2023/06/03 00:35:00;;;;;;;13.63;7.18;;;;;;;14.16;73.06;101840.38;3617768;39;20051;-68
2023/06/03 00:37:25;;;;;;;14.43;7.35;;;;;;;14.05;73.05;101832.03;3616413;39;20421;-69
2023/06/03 00:39:51;;;;;;;16.13;7.60;;;;;;;13.92;72.84;101819.28;3617033;39;20135;-68
2023/06/03 00:42:17;;;;;;;13.02;7.72;;;;;;;13.76;72.65;101787.84;3616568;39;20061;-70
2023/06/03 00:44:43;;;;;;;13.48;7.30;;;;;;;14.02;72.58;101834.94;3614834;39;20074;-69
2023/06/03 00:47:09;;;;;;;14.70;7.53;;;;;;;14.00;72.09;101839.56;3620802;39;20273;-68
2023/06/03 00:49:36;;;;;;;13.05;6.78;;;;;;;13.97;72.02;101843.31;3616896;39;20051;-69
2023/06/03 00:52:04;;;;;;;11.95;6.90;;;;;;;13.93;72.22;101839.94;3614549;39;20103;-69
2023/06/03 00:54:29;;;;;;;18.65;8.60;;;;;;;13.82;72.10;101826.19;3615531;39;20123;-69
2023/06/03 00:56:57;;;;;;;13.48;7.47;;;;;;;13.90;72.00;101841.97;3606236;39;20054;-70
2023/06/03 00:59:23;;;;;;;13.88;7.75;;;;;;;13.88;71.87;101842.03;3613151;39;20074;-70
2023/06/03 01:01:49;;;;;;;12.30;6.90;;;;;;;13.88;72.13;101843.88;3603253;39;20054;-70
2023/06/03 01:04:25;;;;;;;13.50;7.10;;;;;;;13.84;72.15;101842.31;3615006;39;20053;-69
2023/06/03 01:07:30;;;;;;;13.65;7.40;;;;;;;13.79;72.06;101836.31;3615287;39;20054;-69
2023/06/03 01:10:15;;;;;;;13.02;7.45;;;;;;;13.76;71.83;101836.50;3615287;39;20124;-68
2023/06/03 01:13:00;;;;;;;16.98;7.82;;;;;;;13.64;71.86;101820.06;3614328;39;20061;-69
2023/06/03 01:15:30;;;;;;;13.32;7.38;;;;;;;13.47;71.95;101796.72;3613052;39;20092;-69
2023/06/03 01:18:03;;;;;;;13.55;7.47;;;;;;;13.65;72.19;101835.28;3615389;39;20055;-69
2023/06/03 01:20:30;;;;;;;16.67;7.85;;;;;;;13.48;72.09;101813.81;3604377;39;20119;-69
2023/06/03 01:23:23;;;;;;;13.65;7.35;;;;;;;13.60;71.67;101836.50;3614169;39;20058;-69
2023/06/03 01:25:51;;;;;;;15.00;7.83;;;;;;;13.60;71.64;101837.38;3614573;39;20055;-70
2023/06/03 01:28:20;;;;;;;14.18;7.03;;;;;;;13.47;71.53;101822.84;3608654;39;20047;-69
2023/06/03 01:30:46;;;;;;;17.35;7.65;;;;;;;13.53;71.63;101836.00;3614970;39;20054;-70
2023/06/03 01:33:14;;;;;;;13.55;7.55;;;;;;;13.21;71.76;101786.53;3612450;39;20513;-69
2023/06/03 01:35:42;;;;;;;11.88;7.00;;;;;;;13.52;71.40;101833.41;3617018;39;20134;-69
2023/06/03 01:38:08;;;;;;;15.52;7.38;;;;;;;13.15;71.37;101781.47;3616390;39;20119;-69
2023/06/03 01:40:35;;;;;;;13.90;7.50;;;;;;;13.47;71.05;101841.75;3613633;39;20056;-69
2023/06/03 01:43:01;;;;;;;13.25;6.88;;;;;;;13.42;71.38;101827.66;3615851;39;20384;-70
2023/06/03 01:45:26;;;;;;;14.82;7.60;;;;;;;13.43;71.84;101824.00;3614620;39;20059;-69
2023/06/03 01:47:52;;;;;;;14.73;7.60;;;;;;;13.38;71.70;101836.88;3614908;39;20062;-69
2023/06/03 01:50:23;;;;;;;13.55;7.38;;;;;;;13.35;71.62;101828.97;3615479;39;20067;-69
2023/06/03 01:52:49;;;;;;;10.95;7.20;;;;;;;13.13;71.32;101800.47;3607282;39;20050;-69
2023/06/03 01:55:15;;;;;;;18.92;7.85;;;;;;;13.28;71.95;101833.84;3613787;39;20047;-71
2023/06/03 01:57:42;;;;;;;13.10;7.53;;;;;;;13.13;71.64;101811.28;3615318;39;20050;-69
2023/06/03 02:00:11;;;;;;;15.30;6.85;;;;;;;12.95;71.49;101779.91;3614162;39;20128;-70
2023/06/03 02:02:37;;;;;;;15.48;6.85;;;;;;;13.27;71.55;101836.66;3612910;39;20094;-69
2023/06/03 02:05:03;;;;;;;15.93;7.53;;;;;;;13.24;71.50;101824.16;3617408;39;20102;-69
2023/06/03 02:07:32;;;;;;;15.55;7.20;;;;;;;13.19;71.61;101821.72;3613090;39;20053;-70
2023/06/03 02:09:59;;;;;;;13.80;7.15;;;;;;;13.20;71.60;101839.66;3615112;39;20420;-70
2023/06/03 02:12:25;;;;;;;10.48;7.13;;;;;;;12.94;71.46;101797.06;3613350;39;20068;-70
2023/06/03 02:14:54;;;;;;;15.07;7.43;;;;;;;13.10;71.51;101827.66;3612749;39;20125;-70
2023/06/03 02:17:24;;;;;;;14.75;6.80;;;;;;;13.16;71.39;101834.50;3603694;39;20343;-69
2023/06/03 02:19:51;;;;;;;11.98;6.95;;;;;;;13.12;71.64;101825.72;3616967;39;20434;-70
2023/06/03 02:22:20;;;;;;;12.32;6.65;;;;;;;13.17;71.64;101837.13;3613823;39;20386;-70
2023/06/03 02:24:47;;;;;;;13.10;6.90;;;;;;;12.98;71.53;101798.66;3615459;39;20051;-70
2023/06/03 02:27:15;;;;;;;12.85;7.18;;;;;;;13.18;71.65;101822.66;3614259;39;20501;-69
2023/06/03 02:29:45;;;;;;;12.18;6.57;;;;;;;13.17;71.42;101831.72;3615223;39;20043;-70
2023/06/03 02:32:10;;;;;;;12.13;7.03;;;;;;;13.04;71.21;101811.78;3613254;39;20042;-70
2023/06/03 02:34:36;;;;;;;13.07;6.63;;;;;;;13.17;70.93;101833.56;3616018;39;20046;-70
2023/06/03 02:37:01;;;;;;;11.18;6.60;;;;;;;13.15;70.80;101833.63;3612454;39;20070;-69
2023/06/03 02:39:27;;;;;;;20.67;14.30;;;;;;;13.11;71.24;101829.38;3614938;39;20452;-70
2023/06/03 02:41:53;;;;;;;12.70;8.20;;;;;;;13.09;71.04;101833.13;3618205;39;20058;-70
2023/06/03 02:44:18;;;;;;;15.32;8.57;;;;;;;13.06;71.58;101836.84;3616679;39;20070;-69
2023/06/03 02:46:45;;;;;;;11.02;7.28;;;;;;;13.05;71.84;101835.13;3616245;39;20057;-70
2023/06/03 02:49:14;;;;;;;11.55;6.68;;;;;;;13.06;71.06;101839.56;3603946;39;20392;-70
2023/06/03 02:51:40;;;;;;;13.10;6.82;;;;;;;12.85;71.13;101800.28;3615219;39;20055;-71
2023/06/03 02:54:07;;;;;;;11.48;7.07;;;;;;;13.03;71.95;101837.03;3612965;39;20050;-69
2023/06/03 02:56:32;;;;;;;13.45;8.27;;;;;;;12.42;71.21;101737.91;3618314;39;20392;-69
2023/06/03 02:58:58;;;;;;;13.35;8.30;;;;;;;13.01;71.71;101844.34;3619189;39;20116;-69
2023/06/03 03:01:27;;;;;;;15.48;8.63;;;;;;;12.98;71.21;101841.81;3616136;39;20058;-70
2023/06/03 03:03:52;;;;;;;13.70;8.15;;;;;;;12.96;71.88;101832.94;3619134;39;20070;-70
2023/06/03 03:06:21;;;;;;;10.93;6.80;;;;;;;12.91;71.21;101835.03;3613414;39;20150;-69
2023/06/03 03:08:52;;;;;;;13.43;6.88;;;;;;;12.86;71.89;101824.47;3618433;39;20074;-70
2023/06/03 03:11:18;;;;;;;11.27;6.32;;;;;;;12.85;71.62;101835.38;3617205;39;20061;-70
2023/06/03 03:13:45;;;;;;;11.20;6.75;;;;;;;12.84;71.75;101829.06;3609098;39;20047;-70
2023/06/03 03:16:11;;;;;;;8.25;6.15;;;;;;;12.83;72.31;101830.03;3613682;39;20059;-69
2023/06/03 03:18:38;;;;;;;10.90;6.28;;;;;;;12.83;72.11;101839.97;3614270;39;20057;-70
2023/06/03 03:21:05;;;;;;;12.23;6.90;;;;;;;12.81;71.97;101840.03;3614128;39;20066;-70
2023/06/03 03:23:32;;;;;;;11.90;7.07;;;;;;;12.80;72.29;101840.13;3615650;39;20050;-69
2023/06/03 03:26:00;;;;;;;9.35;6.30;;;;;;;12.75;72.41;101837.72;3612888;39;20305;-69
2023/06/03 03:28:26;;;;;;;10.57;6.93;;;;;;;12.72;72.19;101838.75;3614634;39;20078;-70
2023/06/03 03:30:53;;;;;;;12.20;6.40;;;;;;;12.64;71.99;101832.88;3605192;39;20158;-70
2023/06/03 03:33:20;;;;;;;12.50;6.72;;;;;;;12.68;72.17;101844.38;3614178;39;20424;-70
2023/06/03 03:35:49;;;;;;;8.65;6.20;;;;;;;12.56;72.51;101829.75;3614769;39;20411;-70
2023/06/03 03:38:17;;;;;;;9.48;6.18;;;;;;;12.60;72.51;101836.72;3606042;39;20061;-66
2023/06/03 03:40:43;;;;;;;10.27;5.78;;;;;;;12.34;72.61;101804.84;3612505;39;20090;-66
2023/06/03 03:43:19;;;;;;;12.38;6.32;;;;;;;12.58;72.42;101845.81;3614152;39;20058;-67
2023/06/03 03:45:45;;;;;;;9.85;6.13;;;;;;;12.59;72.18;101842.16;3602913;39;20054;-66
2023/06/03 03:48:16;;;;;;;9.48;6.60;;;;;;;12.57;72.43;101849.50;3613644;39;20046;-67
2023/06/03 03:50:48;;;;;;;11.00;6.25;;;;;;;12.59;72.35;101842.16;3614994;39;20330;-67
2023/06/03 03:53:17;;;;;;;10.70;6.22;;;;;;;12.59;72.17;101847.56;3607813;39;20085;-67
2023/06/03 03:55:49;;;;;;;9.95;6.45;;;;;;;12.59;72.41;101845.75;3613386;39;20047;-68
2023/06/03 03:58:42;;;;;;;9.23;6.18;;;;;;;12.57;72.74;101847.66;3615643;39;20381;-66
2023/06/03 04:01:15;;;;;;;13.07;6.80;;;;;;;12.58;72.42;101846.69;3613905;39;20050;-66
2023/06/03 04:03:45;;;;;;;14.65;6.80;;;;;;;12.58;72.23;101844.00;3617592;39;20472;-67
2023/06/03 04:06:14;;;;;;;10.65;6.97;;;;;;;12.60;72.35;101854.72;3615542;39;20087;-65
2023/06/03 04:08:45;;;;;;;10.82;7.70;;;;;;;12.61;73.03;101846.53;3615457;39;20051;-66
2023/06/03 04:11:41;;;;;;;13.00;6.65;;;;;;;12.62;72.45;101853.66;3615047;39;21390;-64
2023/06/03 04:14:10;;;;;;;14.80;6.50;;;;;;;12.63;72.11;101850.03;3615067;39;20348;-66
2023/06/03 04:16:58;;;;;;;12.98;6.68;;;;;;;12.63;72.60;101852.72;3615580;39;20381;-65
2023/06/03 04:19:30;;;;;;;10.95;6.72;;;;;;;12.65;72.73;101858.03;3614275;39;20066;-65
2023/06/03 04:21:58;;;;;;;11.15;6.53;;;;;;;12.68;72.26;101861.41;3612991;39;20059;-67
2023/06/03 04:24:25;;;;;;;8.73;6.65;;;;;;;12.67;72.57;101846.19;3615611;39;20058;-65
2023/06/03 04:26:52;;;;;;;12.35;6.88;;;;;;;12.75;71.96;101862.00;3604308;39;20456;-66
2023/06/03 04:29:18;;;;;;;13.88;7.28;;;;;;;12.77;72.02;101866.31;3616661;39;20064;-67
2023/06/03 04:31:44;;;;;;;12.27;7.15;;;;;;;12.81;71.95;101858.06;3614264;39;20050;-66
2023/06/03 04:34:10;;;;;;;11.20;7.38;;;;;;;12.85;71.65;101859.66;3615343;39;20070;-67
2023/06/03 04:36:35;;;;;;;11.20;7.10;;;;;;;12.83;71.79;101859.72;3614839;39;20054;-66
2023/06/03 04:39:05;;;;;;;10.10;7.03;;;;;;;12.81;71.63;101852.66;3613020;39;20296;-67
2023/06/03 04:41:32;;;;;;;7.72;6.68;;;;;;;12.86;71.57;101856.88;3616548;39;20057;-67
2023/06/03 04:44:02;;;;;;;14.75;7.78;;;;;;;12.91;71.07;101860.19;3616077;39;20054;-66
2023/06/03 04:46:31;;;;;;;10.85;6.75;;;;;;;12.95;70.86;101864.44;3616469;39;20047;-67
2023/06/03 04:49:02;;;;;;;12.57;7.28;;;;;;;12.28;70.74;101744.94;3614518;39;20059;-68
2023/06/03 04:51:33;;;;;;;9.10;6.45;;;;;;;13.02;70.58;101863.16;3615618;39;20387;-67
2023/06/03 04:54:01;;;;;;;8.60;6.70;;;;;;;13.06;70.43;101865.69;3614123;39;20039;-67
2023/06/03 04:56:29;;;;;;;11.23;7.07;;;;;;;13.05;70.73;101862.13;3608275;39;20369;-67
2023/06/03 04:59:00;;;;;;;11.52;6.72;;;;;;;12.94;70.08;101832.13;3617440;39;20058;-67
2023/06/03 05:01:27;;;;;;;8.93;6.32;;;;;;;13.20;70.38;101871.19;3613744;39;20624;-67
2023/06/03 05:03:54;;;;;;;9.48;6.30;;;;;;;13.17;69.43;101861.44;3615473;39;20117;-66
2023/06/03 05:06:21;;;;;;;9.13;6.20;;;;;;;13.28;68.73;101863.53;3618243;39;20318;-66
2023/06/03 05:08:48;;;;;;;11.40;5.95;;;;;;;13.23;68.82;101850.28;3616883;39;20059;-67
2023/06/03 05:11:18;;;;;;;8.43;5.85;;;;;;;13.37;68.28;101875.66;3614548;39;20063;-66
2023/06/03 05:13:45;;;;;;;10.18;5.68;;;;;;;13.17;68.32;101822.78;3617764;39;20481;-67
2023/06/03 05:16:11;;;;;;;9.85;5.60;;;;;;;13.47;67.68;101866.94;3617405;39;20055;-68
2023/06/03 05:18:39;;;;;;;12.38;5.40;;;;;;;13.52;67.28;101868.53;3613494;39;20378;-66
2023/06/03 05:21:05;;;;;;;8.82;4.60;;;;;;;13.40;66.58;101840.38;3613263;39;20084;-66
2023/06/03 05:23:31;;;;;;;8.93;5.45;;;;;;;13.60;66.25;101869.81;3614905;39;20383;-67
2023/06/03 05:25:56;;;;;;;9.27;4.60;;;;;;;13.65;66.00;101867.72;3614961;39;20055;-67
2023/06/03 05:28:25;;;;;;;8.27;4.65;;;;;;;13.37;65.90;101822.53;3615131;39;20313;-66
2023/06/03 05:30:50;;;;;;;9.48;5.05;;;;;;;13.76;65.78;101868.91;3615261;39;20383;-66
2023/06/03 05:33:31;;;;;;;6.75;4.40;;;;;;;13.82;65.44;101874.84;3616713;39;20074;-67
2023/06/03 05:35:58;;;;;;;11.25;4.80;;;;;;;13.86;64.46;101872.81;3613912;39;20114;-67
2023/06/03 05:38:25;;;;;;;7.32;4.72;;;;;;;13.92;64.34;101869.75;3614975;39;20387;-67
2023/06/03 05:40:51;;;;;;;6.57;4.25;;;;;;;13.87;63.65;101856.53;3616032;39;20382;-66
2023/06/03 05:43:19;;;;;;;7.13;4.50;;;;;;;14.04;63.28;101870.88;3615721;39;20063;-66
2023/06/03 05:45:46;;;;;;;7.22;4.40;;;;;;;14.10;62.57;101871.38;3615981;39;20051;-68
2023/06/03 05:48:12;;;;;;;6.10;4.47;;;;;;;13.81;62.56;101812.78;3600804;39;20039;-68
2023/06/03 05:50:48;;;;;;;7.78;3.83;;;;;;;14.24;61.85;101865.16;3617055;39;20471;-65
2023/06/03 05:53:13;;;;;;;7.72;4.05;;;;;;;14.34;62.20;101865.44;3617350;39;20054;-65
2023/06/03 05:55:39;;;;;;;5.80;3.88;;;;;;;14.42;61.78;101865.84;3615108;39;20057;-66
2023/06/03 05:58:05;;;;;;;6.75;3.90;;;;;;;14.25;60.11;101826.31;3616804;39;20063;-64
2023/06/03 06:00:31;;;;;;;9.65;4.03;;;;;;;14.59;59.21;101867.56;3613463;39;20063;-67
2023/06/03 06:02:56;;;;;;;5.43;3.83;;;;;;;14.73;59.16;101872.09;3616315;39;20107;-65
2023/06/03 06:05:22;;;;;;;6.97;3.67;;;;;;;14.76;58.82;101863.78;3616275;39;20312;-65
2023/06/03 06:07:48;;;;;;;8.48;3.67;;;;;;;14.92;58.13;101872.69;3602655;39;20069;-66
2023/06/03 06:10:13;;;;;;;4.22;3.50;;;;;;;14.97;57.95;101865.16;3617084;39;20065;-65
2023/06/03 06:12:39;;;;;;;4.80;3.72;;;;;;;15.20;57.99;101871.78;3614050;39;20365;-65
2023/06/03 06:15:05;;;;;;;6.97;3.70;;;;;;;15.31;56.85;101876.50;3613521;39;20062;-65
2023/06/03 06:17:31;;;;;;;5.82;3.10;;;;;;;15.48;56.38;101870.84;3614340;39;20081;-65
2023/06/03 06:19:59;;;;;;;7.65;3.80;;;;;;;15.63;56.04;101877.09;3614855;39;20083;-66
2023/06/03 06:22:25;;;;;;;6.65;3.90;;;;;;;15.53;56.15;101828.03;3615763;39;20155;-65
2023/06/03 06:24:50;;;;;;;5.20;3.35;;;;;;;15.96;55.47;101881.28;3615027;39;20293;-66
2023/06/03 06:27:16;;;;;;;4.93;3.45;;;;;;;16.15;53.79;101891.75;3613494;39;20058;-66
2023/06/03 06:29:42;;;;;;;5.30;3.13;;;;;;;16.32;53.10;101886.00;3613252;39;20059;-67
2023/06/03 06:32:09;;;;;;;5.68;3.50;;;;;;;16.52;52.77;101894.59;3613889;39;20070;-68
2023/06/03 06:34:35;;;;;;;5.82;3.00;;;;;;;16.75;52.30;101883.03;3615367;39;20046;-68
2023/06/03 06:37:01;;;;;;;3.47;2.90;;;;;;;16.88;50.89;101886.63;3612215;39;20047;-69
2023/06/03 06:39:47;;;;;;;4.40;2.90;;;;;;;17.07;49.89;101882.59;3613145;39;20054;-69
2023/06/03 06:42:23;;;;;;;6.40;3.22;;;;;;;17.22;50.02;101883.28;3612036;39;20059;-69
2023/06/03 06:44:50;;;;;;;6.07;2.92;;;;;;;17.35;50.11;101881.44;3612143;39;20427;-67
2023/06/03 06:47:27;;;;;;;6.80;3.10;;;;;;;17.51;47.49;101884.75;3615701;39;20053;-69
2023/06/03 06:49:57;;;;;;;6.25;2.90;;;;;;;17.66;46.70;101887.28;3615403;39;20050;-67
2023/06/03 06:52:24;;;;;;;4.35;2.88;;;;;;;17.80;47.19;101885.31;3613062;39;20381;-68
2023/06/03 06:54:53;;;;;;;4.95;2.95;;;;;;;17.94;46.28;101892.44;3614030;39;20357;-67
2023/06/03 06:57:28;;;;;;;4.68;2.80;;;;;;;18.09;46.89;101884.94;3615244;39;20059;-69
2023/06/03 06:59:54;;;;;;;5.07;2.60;;;;;;;18.20;45.64;101895.00;3614883;39;20062;-68
2023/06/03 07:02:21;;;;;;;10.95;3.03;;;;;;;17.69;44.69;101784.59;3596097;39;20062;-69
2023/06/03 07:04:51;;;;;;;5.25;2.72;;;;;;;18.57;45.27;101887.56;3614872;39;20413;-70
2023/06/03 07:07:17;;;;;;;5.75;2.75;;;;;;;18.73;43.48;101882.66;3616369;39;20083;-68
2023/06/03 07:09:43;;;;;;;4.30;2.70;;;;;;;18.86;44.48;101890.72;3618168;39;20158;-68
2023/06/03 07:12:10;;;;;;;5.30;2.80;;;;;;;18.99;44.28;101890.59;3616294;39;20080;-67
2023/06/03 07:14:37;;;;;;;3.70;2.45;;;;;;;19.14;45.61;101878.47;3612505;39;20087;-68
2023/06/03 07:17:03;;;;;;;6.18;2.78;;;;;;;19.24;42.57;101884.91;3612612;39;20095;-69
2023/06/03 07:19:38;;;;;;;4.93;2.72;;;;;;;19.41;41.87;101886.25;3612483;39;20054;-68
2023/06/03 07:22:06;;;;;;;4.22;2.80;;;;;;;19.45;40.92;101884.16;3608713;39;20039;-68
2023/06/03 07:24:36;;;;;;;6.70;2.80;;;;;;;19.60;41.27;101885.59;3616643;39;20051;-69
2023/06/03 07:27:07;;;;;;;4.55;2.38;;;;;;;19.74;40.82;101892.66;3619388;39;20116;-68
2023/06/03 07:29:38;;;;;;;3.92;2.85;;;;;;;19.99;40.67;101880.53;3616795;39;20051;-68
2023/06/03 07:32:08;;;;;;;2.97;1.95;;;;;;;20.07;40.58;101886.19;3616216;39;20047;-67
2023/06/03 07:34:36;;;;;;;3.45;2.40;;;;;;;20.22;39.22;101891.38;3598101;39;20062;-69
2023/06/03 07:37:12;;;;;;;4.18;2.30;;;;;;;20.40;40.23;101884.31;3618109;39;20058;-70
2023/06/03 07:39:38;;;;;;;4.20;2.28;;;;;;;20.49;38.53;101891.72;3616070;39;20466;-68
2023/06/03 07:42:20;;;;;;;2.60;1.73;;;;;;;20.71;36.39;101882.53;3606116;39;20074;-68
2023/06/03 07:44:48;;;;;;;2.65;1.90;;;;;;;20.79;36.36;101884.59;3616351;39;20207;-68
2023/06/03 07:47:18;;;;;;;2.53;1.90;;;;;;;20.90;36.10;101887.25;3614520;39;20083;-68
2023/06/03 07:49:48;;;;;;;3.42;2.00;;;;;;;20.89;36.55;101860.91;3613917;39;20066;-69
2023/06/03 07:52:21;;;;;;;3.30;2.08;;;;;;;21.23;36.02;101877.00;3615369;39;20051;-68
2023/06/03 07:54:47;;;;;;;5.72;1.85;;;;;;;20.74;35.34;101783.00;3608218;39;20350;-68
2023/06/03 07:57:14;;;;;;;5.40;1.98;;;;;;;21.37;34.87;101886.72;3607416;39;20440;-68
2023/06/03 07:59:53;;;;;;;6.90;2.40;;;;;;;21.46;33.62;101888.63;3615147;39;20289;-69
2023/06/03 08:02:20;;;;;;;3.40;1.90;;;;;;;21.51;34.00;101887.22;3614517;39;20055;-68
2023/06/03 08:04:46;;;;;;;5.45;1.92;;;;;;;21.69;34.93;101890.13;3615510;39;20090;-68
2023/06/03 08:07:13;;;;;;;4.38;1.80;;;;;;;21.81;33.33;101890.84;3608836;39;20035;-68
2023/06/03 08:09:40;;;;;;;6.22;1.77;;;;;;;21.89;32.99;101899.22;3616369;39;20385;-68
2023/06/03 08:12:09;;;;;;;2.75;1.90;;;;;;;21.92;31.26;101888.00;3613602;39;20402;-68
2023/06/03 08:14:38;;;;;;;3.40;1.77;;;;;;;22.06;30.83;101894.06;3614316;39;20058;-68
2023/06/03 08:17:13;;;;;;;2.90;1.50;;;;;;;22.19;31.56;101890.03;3614728;39;20049;-69
2023/06/03 08:19:44;;;;;;;4.30;1.95;;;;;;;22.29;31.83;101880.94;3608900;39;20043;-69
2023/06/03 08:22:41;;;;;;;2.25;1.35;;;;;;;22.51;29.58;101888.00;3614604;39;20054;-68
2023/06/03 08:25:08;;;;;;;1.88;1.30;;;;;;;22.64;30.21;101875.69;3615826;39;20047;-68
2023/06/03 08:27:36;;;;;;;3.00;1.60;;;;;;;22.69;29.67;101888.97;3607936;39;20123;-68
2023/06/03 08:30:04;;;;;;;3.97;1.50;;;;;;;22.67;30.50;101888.25;3616450;39;20039;-70
2023/06/03 08:32:33;;;;;;;2.72;1.48;;;;;;;22.74;29.51;101883.91;3617423;39;20054;-68
2023/06/03 08:34:59;;;;;;;3.75;1.90;;;;;;;22.83;29.07;101887.63;3614965;39;20059;-68
2023/06/03 08:37:26;;;;;;;3.40;1.55;;;;;;;23.01;29.04;101882.25;3616012;39;20418;-69
2023/06/03 08:39:53;;;;;;;6.18;1.60;;;;;;;23.10;28.87;101893.19;3615179;39;20086;-68
2023/06/03 08:42:28;;;;;;;3.90;1.48;;;;;;;23.29;29.06;101881.25;3615284;39;20406;-68
2023/06/03 08:45:14;;;;;;;1.92;1.50;;;;;;;23.33;28.73;101868.97;3599224;39;20397;-69
2023/06/03 08:48:06;;;;;;;3.83;1.35;;;;;;;23.36;28.02;101887.00;3614388;39;20050;-68
2023/06/03 08:50:36;;;;;;;2.45;1.10;;;;;;;23.42;29.08;101874.56;3614604;39;20058;-67
2023/06/03 08:53:09;;;;;;;1.45;1.27;;;;;;;23.66;27.71;101876.69;3616349;39;20051;-68
2023/06/03 08:55:39;;;;;;;3.15;1.48;;;;;;;23.38;28.25;101847.41;3615650;39;20055;-67
2023/06/03 08:58:26;;;;;;;2.08;1.50;;;;;;;23.72;27.56;101893.44;3616039;39;20108;-68
2023/06/03 09:00:59;;;;;;;3.17;1.38;;;;;;;23.68;27.26;101891.16;3608457;39;20046;-69
2023/06/03 09:03:25;;;;;;;2.03;1.73;;;;;;;23.52;28.24;101839.66;3612938;39;20059;-68
2023/06/03 09:05:53;;;;;;;2.42;1.70;;;;;;;23.95;27.11;101890.28;3603265;39;20047;-69
2023/06/03 09:08:20;;;;;;;4.80;1.48;;;;;;;23.52;26.60;101821.31;3613434;39;20385;-68
2023/06/03 09:10:48;;;;;;;7.38;1.63;;;;;;;23.85;27.07;101893.09;3616482;39;20572;-68
2023/06/03 09:13:16;;;;;;;2.95;1.40;;;;;;;24.01;26.83;101881.41;3613157;39;20061;-69
2023/06/03 09:15:43;;;;;;;4.38;1.45;;;;;;;24.15;26.22;101872.59;3616499;39;20057;-69
2023/06/03 09:18:09;;;;;;;3.28;1.25;;;;;;;24.29;26.69;101891.28;3617003;39;20051;-68
2023/06/03 09:20:36;;;;;;;2.67;1.50;;;;;;;24.39;26.39;101882.06;3613862;39;20101;-67
2023/06/03 09:23:03;;;;;;;2.38;1.17;;;;;;;24.45;24.71;101893.34;3612891;39;20054;-68
2023/06/03 09:25:28;;;;;;;1.75;1.35;;;;;;;24.54;25.31;101892.34;3617215;39;20053;-68
2023/06/03 09:27:54;;;;;;;4.13;1.08;;;;;;;24.26;25.41;101828.41;3614065;39;20063;-68
2023/06/03 09:30:20;;;;;;;1.38;1.10;;;;;;;24.57;25.22;101862.81;3614932;39;20089;-69
2023/06/03 09:32:46;;;;;;;2.80;1.30;;;;;;;24.74;24.54;101875.66;3613634;39;20051;-68
2023/06/03 09:35:13;;;;;;;3.35;1.60;;;;;;;24.73;25.77;101883.03;3613347;39;20058;-68
2023/06/03 09:37:58;;;;;;;3.05;1.30;;;;;;;24.88;24.80;101885.19;3612320;39;20306;-69
2023/06/03 09:40:27;;;;;;;1.67;1.17;;;;;;;24.91;24.35;101879.38;3614254;39;20047;-67
2023/06/03 09:42:53;;;;;;;1.23;1.08;;;;;;;25.00;24.50;101870.13;3615448;39;20050;-68
2023/06/03 09:45:29;;;;;;;1.92;1.20;;;;;;;25.07;25.47;101879.44;3612917;39;20063;-68
2023/06/03 09:47:56;;;;;;;1.90;1.20;;;;;;;25.18;23.71;101879.22;3613596;39;20494;-68
2023/06/03 09:50:24;;;;;;;3.80;1.50;;;;;;;25.24;21.90;101881.28;3613200;39;20095;-69
2023/06/03 09:52:50;;;;;;;3.55;1.40;;;;;;;25.35;23.62;101871.88;3608751;39;20120;-69
2023/06/03 09:55:18;;;;;;;1.35;1.20;;;;;;;25.28;23.97;101887.34;3613722;39;20379;-68
2023/06/03 09:58:13;;;;;;;2.53;1.00;;;;;;;25.36;23.11;101884.59;3616094;39;20312;-71
2023/06/03 10:00:50;;;;;;;2.35;1.52;;;;;;;24.96;24.29;101835.72;3614170;39;20042;-68
2023/06/03 10:03:22;;;;;;;3.00;1.40;;;;;;;25.21;22.26;101878.88;3607332;39;20050;-69
2023/06/03 10:05:48;;;;;;;1.38;1.10;;;;;;;25.14;21.72;101872.28;3614424;39;20061;-68
2023/06/03 10:08:13;;;;;;;4.15;1.27;;;;;;;25.23;22.24;101863.03;3614505;39;20050;-68
2023/06/03 10:10:56;;;;;;;2.60;1.15;;;;;;;25.59;22.47;101884.84;3614136;39;20062;-69
2023/06/03 10:13:23;;;;;;;1.63;1.13;;;;;;;25.67;21.75;101882.13;3613007;39;20404;-68
2023/06/03 10:15:52;;;;;;;3.38;1.35;;;;;;;25.75;21.63;101881.25;3615324;39;20280;-67
2023/06/03 10:18:33;;;;;;;3.20;1.30;;;;;;;25.88;21.00;101889.06;3616686;39;20408;-69
2023/06/03 10:21:05;;;;;;;2.83;1.00;;;;;;;25.77;22.51;101864.59;3615482;39;20131;-68
2023/06/03 10:23:38;;;;;;;2.47;1.30;;;;;;;25.87;22.38;101873.56;3613309;39;20063;-68
2023/06/03 10:26:06;;;;;;;4.68;2.67;;;;;;;26.10;21.38;101877.41;3613675;39;20059;-68
2023/06/03 10:28:32;;;;;;;2.20;1.20;;;;;;;25.98;20.54;101862.25;3612737;39;20069;-68
2023/06/03 10:31:00;;;;;;;2.30;1.30;;;;;;;26.05;21.20;101874.28;3613421;39;20047;-67
2023/06/03 10:33:29;;;;;;;2.63;1.17;;;;;;;26.21;22.27;101878.09;3612729;39;20051;-68
2023/06/03 10:35:57;;;;;;;1.58;0.98;;;;;;;26.39;21.00;101868.63;3613256;39;20051;-69
2023/06/03 10:38:24;;;;;;;1.63;1.15;;;;;;;26.47;20.90;101872.41;3613013;39;20054;-67
2023/06/03 10:40:53;;;;;;;2.63;1.00;;;;;;;26.63;21.48;101884.28;3607075;39;20062;-69
2023/06/03 10:43:22;;;;;;;2.92;1.13;;;;;;;26.55;22.36;101876.03;3614148;39;20051;-69
2023/06/03 10:45:53;;;;;;;1.10;1.00;;;;;;;26.56;22.06;101877.75;3605191;39;20090;-67
2023/06/03 10:48:25;;;;;;;1.88;1.10;;;;;;;26.49;21.34;101875.88;3615263;39;20047;-68
2023/06/03 10:51:22;;;;;;;4.50;1.08;;;;;;;26.82;20.76;101871.16;3613540;39;20050;-68
2023/06/03 10:54:07;;;;;;;1.42;1.23;;;;;;;26.81;20.17;101866.69;3614024;39;20059;-69
2023/06/03 10:56:49;;;;;;;2.00;1.30;;;;;;;26.86;19.56;101875.28;3613949;39;20054;-69
2023/06/03 10:59:23;;;;;;;2.87;1.33;;;;;;;26.34;19.79;101815.03;3613791;39;20079;-69
2023/06/03 11:02:03;;;;;;;3.17;1.00;;;;;;;26.69;23.23;101862.56;3614333;39;20320;-68
2023/06/03 11:04:31;;;;;;;1.88;0.82;;;;;;;27.02;21.51;101874.38;3613428;39;20055;-67
2023/06/03 11:06:57;;;;;;;1.75;0.88;;;;;;;27.06;20.29;101873.84;3612230;39;20051;-69
2023/06/03 11:09:40;;;;;;;1.67;1.00;;;;;;;26.98;20.16;101856.44;3614402;39;20046;-68
2023/06/03 11:12:14;;;;;;;1.25;0.80;;;;;;;27.24;19.51;101870.00;3613637;39;20103;-68
2023/06/03 11:14:42;;;;;;;2.72;1.30;;;;;;;27.38;19.17;101866.50;3612947;39;20055;-69
2023/06/03 11:17:12;;;;;;;2.90;1.20;;;;;;;27.40;18.86;101864.41;3615950;39;20058;-68
2023/06/03 11:19:44;;;;;;;2.47;1.10;;;;;;;27.47;18.97;101861.81;3604598;39;20133;-69
2023/06/03 11:22:12;;;;;;;2.53;0.90;;;;;;;27.38;19.26;101855.47;3613836;39;20083;-68
2023/06/03 11:24:37;;;;;;;5.65;1.05;;;;;;;27.57;19.58;101876.25;3612011;39;20051;-67
2023/06/03 11:27:26;;;;;;;2.97;0.90;;;;;;;27.54;19.15;101860.88;3610019;39;20057;-68
2023/06/03 11:29:52;;;;;;;2.65;1.00;;;;;;;27.51;18.79;101866.78;3605855;39;20050;-67
2023/06/03 11:32:26;;;;;;;3.00;0.93;;;;;;;27.41;19.11;101863.38;3614495;39;20069;-68